Terminal Aerodrome Forecast
Issued by NWS

Home | Current Version | Previous Version | Text Only | Print | Product List | Glossary On
Versions: 1 2 3 4 5 6 7 8 9 10 11 12 13 14 15 16 17
129
FTUS43 KJKL 262000 AAA
TAFSME
TAF AMD
KSME 262000Z 2620/2718 31008KT P6SM BKN020
     FM262200 31006KT P6SM BKN030 OVC100
     FM270000 32004KT P6SM BKN080
     FM270300 00000KT P6SM SKC=

USA.gov is the U.S. government's official web portal to all federal, state and local government web resources and services.